Time;durP1;ratioP1;P1;durP2;ratioP2;P2;SDS_P1;SDS_P2;PMS_P1;PMS_P2;Temp;Humidity;BMP_temperature;BMP_pressure;BME280_temperature;BME280_humidity;BME280_pressure;Samples;Min_cycle;Max_cycle;Signal;HPM_P1;HPM_P2
2022/11/07 01:16:09;;;;;;;12.30;3.92;;;;;;;13.56;67.24;101324.44;6359755;22;20118;-86
2022/11/07 01:18:34;;;;;;;8.85;4.10;;;;;;;13.41;67.57;101309.88;6349363;22;20078;-84
2022/11/07 01:21:05;;;;;;;8.20;3.80;;;;;;;13.50;67.46;101314.28;6340283;22;20058;-86
2022/11/07 01:23:34;;;;;;;9.57;3.90;;;;;;;13.43;67.28;101291.66;6322904;22;20059;-86
2022/11/07 01:26:06;;;;;;;7.88;3.65;;;;;;;13.53;67.63;101316.66;6331101;22;20006;-85
2022/11/07 01:28:37;;;;;;;10.57;4.00;;;;;;;13.55;67.95;101311.09;6387480;22;20006;-85
2022/11/07 01:31:09;;;;;;;8.82;3.88;;;;;;;13.37;68.08;101289.59;6362808;22;20058;-85
2022/11/07 01:33:35;;;;;;;10.75;4.00;;;;;;;13.46;67.50;101283.22;6340605;22;20093;-86
2022/11/07 01:36:04;;;;;;;11.43;4.10;;;;;;;13.54;67.08;101296.75;6337898;22;20040;-85
2022/11/07 01:38:31;;;;;;;11.63;4.03;;;;;;;13.42;66.85;101280.00;6363293;22;20006;-86
2022/11/07 01:43:48;;;;;;;11.23;4.40;;;;;;;13.51;66.70;101314.13;6329862;22;20461;-87
2022/11/07 01:46:14;;;;;;;13.40;4.20;;;;;;;13.52;66.75;101317.69;6348828;22;20036;-86
2022/11/07 01:52:16;;;;;;;10.77;3.85;;;;;;;13.46;66.98;101300.28;6378138;22;20005;-86
2022/11/07 01:55:02;;;;;;;11.50;4.07;;;;;;;13.58;66.62;101318.88;6320731;22;20075;-85
2022/11/07 01:57:59;;;;;;;10.38;3.95;;;;;;;13.49;66.65;101301.81;6342919;22;20022;-83
2022/11/07 02:00:25;;;;;;;7.72;3.63;;;;;;;13.45;66.64;101303.13;6313375;22;20018;-84
2022/11/07 02:03:13;;;;;;;11.23;3.88;;;;;;;13.56;66.51;101313.66;6369196;22;20036;-86
2022/11/07 02:05:53;;;;;;;7.45;3.75;;;;;;;13.56;66.58;101321.75;6368737;22;20094;-85
2022/11/07 02:08:19;;;;;;;10.40;4.22;;;;;;;13.56;66.82;101326.31;6341574;22;20029;-85
2022/11/07 02:10:46;;;;;;;10.68;3.70;;;;;;;13.51;66.79;101297.09;6341340;22;20010;-83
2022/11/07 02:13:16;;;;;;;17.05;4.00;;;;;;;13.48;66.63;101310.91;6316527;22;20014;-85
2022/11/07 02:15:42;;;;;;;9.55;3.92;;;;;;;13.60;66.72;101312.31;6341465;22;20028;-86
2022/11/07 02:18:10;;;;;;;11.00;3.95;;;;;;;13.39;66.93;101282.19;6315992;22;20442;-83
2022/11/07 02:20:37;;;;;;;14.80;4.40;;;;;;;13.60;66.68;101320.41;6316544;22;20010;-84
2022/11/07 02:23:25;;;;;;;14.15;4.13;;;;;;;13.56;66.06;101304.69;6340339;22;20045;-84
2022/11/07 02:25:52;;;;;;;10.10;4.07;;;;;;;13.53;65.97;101311.25;6316586;22;20079;-83
2022/11/07 02:28:20;;;;;;;12.13;4.45;;;;;;;13.54;66.16;101318.38;6341169;22;20093;-84
2022/11/07 02:30:47;;;;;;;8.82;4.82;;;;;;;13.51;65.63;101316.00;6314097;22;20388;-83
2022/11/07 02:33:20;;;;;;;11.70;4.13;;;;;;;13.63;66.08;101327.34;6337460;22;20014;-84
2022/11/07 02:35:48;;;;;;;8.57;4.22;;;;;;;13.60;65.92;101312.31;6338288;22;20014;-84
2022/11/07 02:38:35;;;;;;;9.50;4.57;;;;;;;13.60;66.04;101315.00;6314100;22;20018;-83
2022/11/07 02:41:07;;;;;;;9.85;4.05;;;;;;;13.68;65.92;101306.91;6367189;22;20462;-85
2022/11/07 02:43:33;;;;;;;9.38;3.92;;;;;;;13.61;66.18;101308.59;6340103;22;20002;-82
2022/11/07 02:45:59;;;;;;;;;;;;;;;13.62;66.67;101315.66;6314107;22;20015;-83
2022/11/07 02:48:30;;;;;;;11.15;4.30;;;;;;;13.52;66.91;101318.50;6314334;22;20254;-83
2022/11/07 02:50:56;;;;;;;10.00;4.40;;;;;;;13.66;66.51;101317.03;6369120;22;20002;-84
2022/11/07 02:53:22;;;;;;;;;;;;;;;13.63;66.83;101322.78;6371185;22;20012;-83
2022/11/07 02:55:48;;;;;;;12.15;4.10;;;;;;;13.51;67.29;101319.53;6342904;22;19976;-84
2022/11/07 02:58:15;;;;;;;14.57;4.40;;;;;;;13.55;67.50;101321.91;6294118;22;20022;-86
2022/11/07 03:00:41;;;;;;;10.02;4.13;;;;;;;13.53;66.79;101319.34;6345205;22;20096;-84
2022/11/07 03:03:08;;;;;;;10.77;4.00;;;;;;;13.56;66.84;101310.94;6317440;22;20014;-83
2022/11/07 03:05:37;;;;;;;11.00;4.32;;;;;;;13.51;66.94;101316.00;6342679;22;20272;-84
2022/11/07 03:08:03;;;;;;;12.30;4.68;;;;;;;13.60;66.88;101308.75;6318605;22;20006;-84
2022/11/07 03:10:29;;;;;;;12.50;4.43;;;;;;;13.78;66.03;101319.44;6315862;22;20316;-85
2022/11/07 03:12:56;;;;;;;8.25;4.18;;;;;;;13.75;66.14;101319.78;6341694;22;20022;-84
2022/11/07 03:15:27;;;;;;;8.50;4.47;;;;;;;13.75;66.07;101317.06;6368679;22;20006;-85
2022/11/07 03:17:53;;;;;;;7.88;4.20;;;;;;;13.70;66.16;101321.09;6367985;22;20021;-83
2022/11/07 03:20:18;;;;;;;11.85;4.63;;;;;;;13.57;66.09;101304.53;6287875;22;21068;-86
2022/11/07 03:22:47;;;;;;;6.50;4.07;;;;;;;13.72;66.08;101331.75;6339974;22;20010;-83
2022/11/07 03:25:14;;;;;;;9.30;4.07;;;;;;;13.69;66.16;101316.69;6340868;22;20010;-85
2022/11/07 03:28:09;;;;;;;10.50;4.05;;;;;;;13.62;65.71;101304.88;6340224;22;20089;-84
2022/11/07 03:30:35;;;;;;;7.80;4.22;;;;;;;13.67;66.34;101324.16;6372630;22;20028;-86
2022/11/07 03:33:01;;;;;;;10.95;4.60;;;;;;;13.77;66.16;101334.81;6313583;22;20342;-86
2022/11/07 03:35:27;;;;;;;10.15;4.47;;;;;;;13.83;65.81;101333.28;6339835;22;20014;-84
2022/11/07 03:37:54;;;;;;;13.07;5.10;;;;;;;13.84;65.52;101340.41;6314332;22;20017;-83
2022/11/07 03:40:20;;;;;;;12.32;4.57;;;;;;;13.80;65.42;101333.63;6339762;22;20042;-83
2022/11/07 03:42:46;;;;;;;9.23;4.40;;;;;;;13.88;65.42;101336.34;6288533;22;20002;-84
2022/11/07 03:45:14;;;;;;;10.88;4.38;;;;;;;13.71;65.45;101309.28;6340351;22;20015;-82
2022/11/07 03:47:42;;;;;;;12.80;4.88;;;;;;;13.86;65.17;101327.53;6324531;22;20014;-84
2022/11/07 03:50:11;;;;;;;12.20;4.88;;;;;;;13.85;65.43;101332.09;6357426;22;20002;-89
2022/11/07 03:52:41;;;;;;;10.73;4.47;;;;;;;13.69;65.59;101327.50;6323516;22;20014;-85
2022/11/07 03:55:17;;;;;;;10.45;4.72;;;;;;;13.72;65.99;101324.50;6341158;22;20040;-84
2022/11/07 03:57:42;;;;;;;11.48;5.22;;;;;;;13.73;65.38;101320.78;6368032;22;20010;-84
2022/11/07 04:00:09;;;;;;;9.98;4.93;;;;;;;13.70;65.82;101321.09;6313798;22;20268;-84
2022/11/07 04:02:37;;;;;;;8.82;4.68;;;;;;;13.66;65.97;101322.44;6340076;22;20036;-83
2022/11/07 04:05:06;;;;;;;10.38;4.93;;;;;;;13.78;65.79;101330.25;6343301;22;20010;-82
2022/11/07 04:07:32;;;;;;;10.00;5.22;;;;;;;13.75;65.98;101336.81;6351507;22;20006;-86
2022/11/07 04:09:59;;;;;;;11.43;5.10;;;;;;;13.73;66.25;101330.75;6333961;22;20011;-83
2022/11/07 04:17:53;;;;;;;9.82;4.88;;;;;;;13.74;66.48;101345.94;6368511;22;20059;-85
2022/11/07 04:20:19;;;;;;;11.40;5.05;;;;;;;13.62;66.65;101337.28;6316073;22;20006;-84
2022/11/07 04:22:47;;;;;;;;;;;;;;;13.68;66.58;101333.94;6315761;22;20338;-82
2022/11/07 04:25:14;;;;;;;11.52;5.43;;;;;;;13.63;66.41;101332.75;6365465;22;20005;-86
2022/11/07 04:27:42;;;;;;;9.45;5.47;;;;;;;13.58;67.03;101335.94;6289267;22;20054;-82
2022/11/07 04:30:18;;;;;;;11.73;5.20;;;;;;;13.60;66.70;101330.34;6342327;22;20085;-84
2022/11/07 04:32:44;;;;;;;10.27;5.20;;;;;;;13.77;66.10;101337.50;6344576;22;20044;-86
2022/11/07 04:35:09;;;;;;;10.50;5.43;;;;;;;13.64;66.01;101302.84;6342457;22;20346;-86
2022/11/07 04:37:35;;;;;;;11.07;5.65;;;;;;;13.75;65.58;101317.06;6343877;22;20079;-84
2022/11/07 04:40:01;;;;;;;11.90;5.70;;;;;;;13.78;65.30;101322.13;6317878;22;20045;-85
2022/11/07 04:42:26;;;;;;;11.68;5.70;;;;;;;13.80;65.52;101339.88;6362067;22;19998;-83
2022/11/07 04:44:53;;;;;;;10.85;6.00;;;;;;;13.85;65.36;101333.97;6337608;22;20312;-83
2022/11/07 04:47:19;;;;;;;;;;;;;;;13.78;65.69;101341.06;6345152;22;20022;-82
2022/11/07 04:55:54;;;;;;;9.13;5.57;;;;;;;13.63;66.52;101344.41;6370355;22;20021;-84
2022/11/07 04:58:20;;;;;;;15.93;6.05;;;;;;;13.54;66.71;101326.47;6374211;22;20410;-82
2022/11/07 05:00:45;;;;;;;11.65;5.43;;;;;;;13.54;67.01;101321.06;6288074;22;20021;-81
2022/11/07 05:03:13;;;;;;;14.18;5.35;;;;;;;13.66;67.18;101343.22;6340543;22;20029;-83
2022/11/07 05:05:40;;;;;;;11.73;5.80;;;;;;;13.54;67.42;101326.47;6314189;22;20204;-81
2022/11/07 05:08:07;;;;;;;10.90;5.78;;;;;;;13.74;67.16;101335.13;6338241;22;20017;-82
2022/11/07 05:10:33;;;;;;;14.73;5.85;;;;;;;13.82;67.04;101342.41;6337592;22;20036;-82
2022/11/07 05:12:59;;;;;;;;;;;;;;;13.84;67.19;101341.25;6313042;22;20039;-83
2022/11/07 05:15:24;;;;;;;10.07;5.65;;;;;;;13.85;67.14;101339.38;6339032;22;19918;-82
2022/11/07 05:17:50;;;;;;;14.27;5.78;;;;;;;13.90;67.09;101350.53;6365347;22;20018;-82
2022/11/07 05:20:31;;;;;;;13.90;5.85;;;;;;;13.93;67.21;101350.22;6339335;22;20003;-83
2022/11/07 05:26:12;;;;;;;11.77;5.18;;;;;;;13.93;67.52;101361.88;6342501;22;20025;-82
2022/11/07 05:28:37;;;;;;;12.30;5.57;;;;;;;13.92;67.59;101354.75;6362682;22;20047;-82
2022/11/07 05:31:03;;;;;;;;;;;;;;;13.97;67.13;101356.97;6339140;22;20010;-83
2022/11/07 05:33:29;;;;;;;11.63;5.50;;;;;;;13.87;67.97;101361.69;6367155;22;19977;-84
2022/11/07 05:35:56;;;;;;;16.08;5.55;;;;;;;13.75;68.40;101358.44;6338288;22;20041;-82
2022/11/07 05:38:23;;;;;;;13.80;5.95;;;;;;;13.84;68.17;101362.03;6367925;22;20097;-84
2022/11/07 05:40:49;;;;;;;20.58;5.45;;;;;;;13.87;68.14;101373.34;6340909;22;20357;-82
2022/11/07 05:43:14;;;;;;;;;;;;;;;13.92;68.29;101365.56;6368871;22;20013;-82
2022/11/07 05:45:40;;;;;;;13.73;5.82;;;;;;;13.69;68.62;101365.34;6339414;22;19925;-82
2022/11/07 05:48:13;;;;;;;18.92;6.03;;;;;;;13.58;68.69;101352.16;6288860;22;20002;-83
2022/11/07 05:50:41;;;;;;;12.73;5.32;;;;;;;13.74;68.90;101389.16;6339746;22;20013;-83
2022/11/07 05:53:06;;;;;;;10.90;5.60;;;;;;;13.76;68.67;101381.75;6340590;22;20082;-83
2022/11/07 05:55:34;;;;;;;11.80;6.47;;;;;;;13.63;69.04;101357.91;6367840;22;19999;-83
2022/11/07 05:58:10;;;;;;;16.98;6.78;;;;;;;13.68;69.24;101374.47;6339727;22;20084;-81
2022/11/07 06:00:35;;;;;;;15.43;6.00;;;;;;;13.68;69.70;101387.97;6338426;22;20029;-83
2022/11/07 06:03:01;;;;;;;16.52;6.20;;;;;;;13.62;71.15;101368.88;6317809;22;20010;-83
2022/11/07 06:05:26;;;;;;;12.98;5.93;;;;;;;13.84;70.67;101400.69;6318402;22;20371;-84
2022/11/07 06:07:52;;;;;;;17.77;7.07;;;;;;;13.79;70.07;101403.06;6342868;22;20002;-86
2022/11/07 06:10:18;;;;;;;13.27;6.38;;;;;;;13.84;69.77;101394.47;6342721;22;20010;-83
2022/11/07 06:13:06;;;;;;;12.52;6.88;;;;;;;13.83;70.20;101408.97;6291836;22;20002;-84
2022/11/07 06:15:34;;;;;;;11.25;5.88;;;;;;;13.77;70.62;101402.38;6344661;22;20014;-85
2022/11/07 06:18:07;;;;;;;10.95;5.72;;;;;;;13.82;70.64;101402.72;6318211;22;20359;-84
2022/11/07 06:20:36;;;;;;;11.65;5.60;;;;;;;13.83;70.73;101404.41;6355721;22;20010;-86
2022/11/07 06:23:43;;;;;;;15.48;5.85;;;;;;;13.89;70.62;101414.56;6329812;22;20028;-85
2022/11/07 06:26:11;;;;;;;19.13;7.03;;;;;;;13.81;71.06;101392.06;6377906;22;20017;-89
2022/11/07 06:41:33;;;;;;;16.85;5.65;;;;;;;14.02;69.87;101413.25;6341791;22;20068;-83
2022/11/07 06:43:59;;;;;;;;;;;;;;;14.18;69.04;101424.09;6287631;22;20066;-83
2022/11/07 06:46:24;;;;;;;12.57;5.20;;;;;;;13.86;68.92;101393.28;6310342;22;19912;-86
2022/11/07 06:48:50;;;;;;;14.20;5.88;;;;;;;14.04;68.85;101412.06;6310775;22;20017;-86
2022/11/07 06:51:22;;;;;;;12.30;5.70;;;;;;;13.89;68.37;101387.53;6315988;22;19999;-87
2022/11/07 06:53:54;;;;;;;10.27;5.53;;;;;;;14.09;68.01;101400.75;6351446;22;20014;-87
2022/11/07 06:56:32;;;;;;;18.35;6.25;;;;;;;13.96;68.50;101385.03;6337844;22;20015;-83
2022/11/07 06:58:58;;;;;;;14.55;5.55;;;;;;;14.24;68.13;101418.03;6290455;22;20505;-82
2022/11/07 07:01:26;;;;;;;15.15;5.43;;;;;;;14.35;67.39;101424.97;6283933;22;20006;-84
2022/11/07 07:03:54;;;;;;;8.23;4.63;;;;;;;14.40;66.78;101408.22;6310893;22;20396;-84
2022/11/07 07:06:21;;;;;;;9.43;4.90;;;;;;;14.50;66.00;101427.88;6315292;22;20006;-86
2022/11/07 07:08:50;;;;;;;9.27;5.00;;;;;;;14.49;65.83;101418.91;6289029;22;20045;-87
2022/11/07 07:11:16;;;;;;;8.52;4.43;;;;;;;14.48;65.01;101398.25;6346855;22;20076;-86
2022/11/07 07:13:42;;;;;;;7.75;4.72;;;;;;;14.56;64.57;101421.78;6293676;22;20002;-87
2022/11/07 07:16:08;;;;;;;11.23;4.40;;;;;;;14.48;63.61;101417.19;6313335;22;20015;-88
2022/11/07 07:18:38;;;;;;;13.02;4.47;;;;;;;14.60;64.35;101428.56;6293365;22;20007;-86
2022/11/07 07:21:09;;;;;;;11.35;4.35;;;;;;;14.69;62.65;101429.44;6353139;22;20007;-87
2022/11/07 07:23:40;;;;;;;7.05;3.90;;;;;;;14.78;61.49;101428.41;6328057;22;20011;-88
2022/11/07 07:26:12;;;;;;;9.88;4.43;;;;;;;14.71;61.79;101425.53;6354754;22;20006;-88
2022/11/07 07:28:41;;;;;;;9.45;4.43;;;;;;;14.87;61.35;101432.81;6323892;22;20010;-84
2022/11/07 07:31:42;;;;;;;13.85;4.45;;;;;;;14.94;60.38;101425.69;6352933;22;20048;-90
2022/11/07 07:34:32;;;;;;;9.57;4.10;;;;;;;15.01;60.24;101430.41;6349523;22;20118;-85
2022/11/07 07:36:58;;;;;;;10.65;4.07;;;;;;;15.11;59.55;101437.34;6349532;22;20011;-86
2022/11/07 07:39:26;;;;;;;;;;;;;;;15.23;59.40;101440.53;6353569;22;20022;-85
2022/11/07 07:41:55;;;;;;;10.25;3.83;;;;;;;15.30;58.77;101436.13;6372190;22;19913;-86
2022/11/07 07:44:30;;;;;;;7.75;3.80;;;;;;;15.51;58.19;101434.72;6369294;22;20010;-86
2022/11/07 07:46:56;;;;;;;10.13;4.20;;;;;;;15.38;57.90;101414.44;6343443;22;20098;-85
2022/11/07 07:49:21;;;;;;;8.55;4.18;;;;;;;15.48;57.61;101422.34;6316931;22;20011;-86
2022/11/07 07:51:48;;;;;;;;;;;;;;;15.72;57.45;101434.16;6317376;22;20050;-84
2022/11/07 07:54:20;;;;;;;9.30;4.40;;;;;;;15.83;56.97;101433.78;6341962;22;19906;-84
2022/11/07 07:56:45;;;;;;;11.68;4.20;;;;;;;16.07;56.37;101435.50;6316779;22;20349;-86
2022/11/07 07:59:12;;;;;;;9.63;4.57;;;;;;;16.38;54.52;101412.91;6369154;22;20075;-86
2022/11/07 08:01:38;;;;;;;13.05;4.20;;;;;;;16.55;54.39;101436.22;6291512;22;20010;-88
2022/11/07 08:04:04;;;;;;;;;;;;;;;16.51;53.66;101434.03;6344151;22;20045;-84
2022/11/07 08:06:31;;;;;;;6.20;3.78;;;;;;;16.52;53.33;101431.13;6342067;22;19907;-87
2022/11/07 08:08:56;;;;;;;8.02;3.83;;;;;;;16.68;53.05;101424.72;6291758;22;20014;-86
2022/11/07 08:11:22;;;;;;;;;;;;;;;16.82;52.33;101436.69;6315666;22;20014;-84
2022/11/07 08:13:49;;;;;;;;;;;;;;;16.82;52.44;101442.97;6315521;22;19910;-86
2022/11/07 08:16:18;;;;;;;8.93;3.60;;;;;;;16.87;51.87;101429.66;6291713;22;20258;-85
2022/11/07 08:18:44;;;;;;;;;;;;;;;16.95;52.03;101436.94;6341428;22;20010;-86
2022/11/07 08:21:09;;;;;;;9.15;3.83;;;;;;;17.20;51.66;101436.66;6341089;22;20390;-86
2022/11/07 08:23:35;;;;;;;;;;;;;;;17.32;50.86;101437.88;6342077;22;20071;-85
2022/11/07 08:26:03;;;;;;;;;;;;;;;17.43;50.24;101439.31;6369849;22;19913;-88
2022/11/07 08:28:32;;;;;;;9.32;3.85;;;;;;;17.32;50.20;101432.44;6342127;22;19910;-84
2022/11/07 08:30:58;;;;;;;10.00;3.83;;;;;;;17.41;50.51;101434.06;6341848;22;20046;-86
2022/11/07 08:33:23;;;;;;;9.15;4.07;;;;;;;17.62;49.29;101444.19;6315689;22;20060;-87
2022/11/07 08:35:49;;;;;;;;;;;;;;;17.54;48.89;101441.56;6369454;22;20002;-86
2022/11/07 08:38:15;;;;;;;10.77;3.40;;;;;;;17.33;49.19;101434.16;6316325;22;19906;-87
2022/11/07 08:40:42;;;;;;;6.57;3.20;;;;;;;17.27;49.54;101440.31;6317709;22;20022;-85
2022/11/07 08:43:09;;;;;;;11.45;3.47;;;;;;;17.21;49.45;101447.38;6345643;22;20006;-86
2022/11/07 08:45:34;;;;;;;6.85;3.25;;;;;;;17.20;49.33;101439.38;6348136;22;20018;-86
2022/11/07 08:48:00;;;;;;;;;;;;;;;17.25;49.32;101443.22;6310648;22;20010;-84
2022/11/07 08:50:25;;;;;;;;;;;;;;;17.43;48.97;101445.59;6381722;22;19934;-85
2022/11/07 08:52:54;;;;;;;7.63;3.75;;;;;;;17.44;48.99;101447.28;6371050;22;20343;-86
2022/11/07 08:55:19;;;;;;;10.90;3.70;;;;;;;17.52;48.39;101439.03;6372457;22;19998;-86
2022/11/07 08:57:45;;;;;;;;;;;;;;;17.56;48.04;101444.94;6344311;22;20058;-84
2022/11/07 09:00:11;;;;;;;;;;;;;;;17.44;47.91;101450.00;6372742;22;19910;-84
2022/11/07 09:02:37;;;;;;;7.72;3.28;;;;;;;17.51;47.54;101436.47;6373591;22;19906;-86
2022/11/07 09:05:03;;;;;;;;;;;;;;;18.18;46.55;101449.09;6322360;22;20027;-84
2022/11/07 09:07:28;;;;;;;12.10;3.38;;;;;;;18.60;44.60;101435.72;6352382;22;19910;-86
2022/11/07 09:09:54;;;;;;;;;;;;;;;18.50;44.91;101452.38;6309436;22;20006;-83
2022/11/07 09:12:19;;;;;;;6.32;3.45;;;;;;;18.44;45.13;101443.09;6346976;22;19948;-86
2022/11/07 09:14:46;;;;;;;9.32;3.17;;;;;;;18.27;44.53;101420.72;6343502;22;20002;-87
2022/11/07 09:17:14;;;;;;;5.75;3.20;;;;;;;18.23;44.86;101443.91;6372748;22;20018;-85
2022/11/07 09:19:39;;;;;;;9.40;3.40;;;;;;;18.18;45.19;101440.94;6353933;22;20273;-85
2022/11/07 09:22:06;;;;;;;;;;;;;;;18.21;45.43;101454.13;6355566;22;19998;-85
2022/11/07 09:24:32;;;;;;;6.90;3.35;;;;;;;18.00;45.25;101441.34;6355497;22;19910;-85
2022/11/07 09:26:57;;;;;;;;;;;;;;;18.14;45.28;101450.50;6336828;22;20003;-85
2022/11/07 09:29:25;;;;;;;7.18;3.63;;;;;;;18.07;45.32;101425.09;6366734;22;19902;-88
2022/11/07 09:31:51;;;;;;;7.03;3.25;;;;;;;18.13;45.29;101457.00;6362732;22;20010;-84
2022/11/07 09:34:20;;;;;;;7.25;3.40;;;;;;;18.05;45.13;101465.25;6356057;22;20002;-86
2022/11/07 09:36:47;;;;;;;6.85;3.20;;;;;;;18.12;45.19;101447.13;6327181;22;20399;-86
2022/11/07 09:39:14;;;;;;;9.80;3.30;;;;;;;18.31;44.55;101454.69;6293755;22;20018;-86
2022/11/07 09:42:00;;;;;;;9.50;3.10;;;;;;;18.64;44.02;101448.75;6318040;22;20011;-85
2022/11/07 09:44:58;;;;;;;9.20;3.22;;;;;;;18.68;43.30;101450.03;6371280;22;20093;-86
2022/11/07 09:47:37;;;;;;;6.82;3.20;;;;;;;18.79;42.95;101451.41;6317783;22;20015;-84
2022/11/07 09:50:10;;;;;;;7.85;3.20;;;;;;;18.54;42.93;101427.28;6291691;22;20516;-87
2022/11/07 09:52:37;;;;;;;7.85;2.90;;;;;;;18.62;42.80;101448.09;6318816;22;20010;-86
2022/11/07 09:55:34;;;;;;;9.30;3.17;;;;;;;18.99;41.77;101427.06;6343913;22;20350;-88
2022/11/07 09:58:02;;;;;;;11.07;3.10;;;;;;;20.29;39.33;101443.69;6318902;22;20026;-87
2022/11/07 10:00:29;;;;;;;4.80;2.80;;;;;;;21.38;36.77;101428.84;6291690;22;20002;-87
2022/11/07 10:02:57;;;;;;;9.05;3.30;;;;;;;23.28;33.51;101434.47;6343253;22;20307;-85
2022/11/07 10:05:41;;;;;;;12.60;3.80;;;;;;;25.83;30.65;101428.50;6317697;22;20010;-86
2022/11/07 10:08:39;;;;;;;7.20;2.97;;;;;;;27.92;27.07;101426.69;6370714;22;19998;-86
2022/11/07 10:11:53;;;;;;;8.40;3.55;;;;;;;29.24;24.17;101427.13;6333773;22;20021;-87
2022/11/07 10:14:22;;;;;;;;;;;;;;;28.90;24.20;101432.09;6306510;22;20006;-84
2022/11/07 10:17:00;;;;;;;9.10;3.40;;;;;;;27.69;25.63;101409.25;6373080;22;19906;-85
2022/11/07 10:19:33;;;;;;;7.68;3.40;;;;;;;27.01;26.96;101421.53;6345638;22;20010;-86
2022/11/07 10:22:42;;;;;;;8.40;3.92;;;;;;;25.94;27.91;101417.69;6373436;22;20014;-87
2022/11/07 10:25:16;;;;;;;8.93;3.83;;;;;;;27.16;26.44;101419.84;6220298;23;20008;-86
2022/11/07 10:27:44;;;;;;;8.93;3.30;;;;;;;28.26;24.63;101399.72;6361222;22;20018;-86
2022/11/07 10:30:37;;;;;;;6.85;3.00;;;;;;;29.57;23.26;101394.59;6343829;22;20609;-87
2022/11/07 10:33:18;;;;;;;6.40;2.90;;;;;;;30.96;21.90;101392.09;6348370;22;20466;-88
2022/11/07 10:35:47;;;;;;;6.18;3.50;;;;;;;32.33;20.08;101395.38;6372885;22;20009;-85
2022/11/07 10:38:25;;;;;;;6.07;2.90;;;;;;;31.92;19.72;101390.91;6342947;22;20082;-87
2022/11/07 10:40:50;;;;;;;5.72;2.97;;;;;;;33.12;19.09;101393.31;6322555;22;20282;-88
2022/11/07 10:43:36;;;;;;;4.80;2.78;;;;;;;33.13;18.58;101380.22;6320965;22;20430;-85
2022/11/07 10:46:08;;;;;;;7.50;3.60;;;;;;;32.98;18.93;101384.78;6322519;22;20002;-88
2022/11/07 10:48:34;;;;;;;9.80;3.20;;;;;;;32.08;19.50;101382.50;6353564;22;20016;-87
2022/11/07 10:51:01;;;;;;;8.55;2.97;;;;;;;30.67;20.80;101368.50;6347751;22;20034;-88
2022/11/07 10:53:26;;;;;;;10.40;3.83;;;;;;;29.58;22.12;101387.13;6342593;22;20507;-87
2022/11/07 10:55:53;;;;;;;13.63;7.05;;;;;;;28.72;23.08;101379.94;6320302;22;20002;-85
2022/11/07 10:58:24;;;;;;;9.43;4.10;;;;;;;27.46;24.47;101385.50;6317672;22;20022;-86
2022/11/07 11:01:04;;;;;;;10.00;3.90;;;;;;;26.78;25.61;101378.41;6317542;22;20071;-85
2022/11/07 11:03:31;;;;;;;10.50;3.75;;;;;;;27.44;24.98;101382.19;6326182;22;20454;-88
2022/11/07 11:06:08;;;;;;;19.85;11.65;;;;;;;28.77;23.20;101366.97;6324685;22;20038;-87
2022/11/07 11:08:35;;;;;;;9.75;5.43;;;;;;;29.37;22.06;101359.31;6388567;22;20002;-87
2022/11/07 11:11:01;;;;;;;11.05;5.88;;;;;;;30.09;21.38;101346.53;6331269;22;20014;-85
2022/11/07 11:13:27;;;;;;;6.85;5.13;;;;;;;30.96;20.29;101369.88;6325609;22;20064;-87
2022/11/07 11:15:54;;;;;;;7.57;4.60;;;;;;;31.72;19.56;101352.91;6350332;22;20137;-89
2022/11/07 11:18:20;;;;;;;6.72;3.20;;;;;;;32.44;18.97;101359.97;6325169;22;20009;-88
2022/11/07 11:21:06;;;;;;;7.10;3.10;;;;;;;33.00;18.21;101354.69;6352397;22;20002;-87
2022/11/07 11:23:36;;;;;;;6.75;3.63;;;;;;;33.03;18.11;101319.84;6377699;22;20319;-88
2022/11/07 11:26:07;;;;;;;8.95;3.42;;;;;;;32.89;18.60;101349.53;6333360;22;20037;-89
2022/11/07 11:28:42;;;;;;;24.30;3.78;;;;;;;31.78;19.12;101341.78;6388669;22;20037;-89
2022/11/07 11:31:54;;;;;;;5.75;2.90;;;;;;;31.89;19.43;101340.59;6338334;22;19994;-89
2022/11/07 11:34:34;;;;;;;9.82;3.22;;;;;;;32.14;18.69;101347.97;6349020;22;20036;-87
2022/11/07 11:37:27;;;;;;;6.97;2.70;;;;;;;31.65;19.08;101319.03;6355189;22;20010;-88
2022/11/07 11:40:05;;;;;;;5.05;2.90;;;;;;;31.69;19.37;101336.81;6346228;22;20011;-88
2022/11/07 11:42:30;;;;;;;8.10;3.50;;;;;;;31.58;19.23;101340.75;6336339;22;20007;-88
2022/11/07 11:45:01;;;;;;;10.75;3.25;;;;;;;31.65;19.16;101335.72;6393954;22;19990;-88
2022/11/07 11:47:50;;;;;;;9.50;3.17;;;;;;;31.14;19.55;101322.06;6394478;22;20006;-87
2022/11/07 11:50:23;;;;;;;12.70;8.40;;;;;;;30.63;19.81;101324.94;6335187;22;20009;-87
2022/11/07 11:52:52;;;;;;;14.55;11.40;;;;;;;30.17;20.94;101338.78;6300238;22;20013;-88
2022/11/07 11:55:19;;;;;;;9.52;2.78;;;;;;;29.11;21.56;101333.44;6347681;22;19998;-85
2022/11/07 11:58:06;;;;;;;6.95;3.05;;;;;;;28.30;22.29;101317.88;6293951;22;20071;-88
2022/11/07 12:00:54;;;;;;;8.60;3.45;;;;;;;27.48;23.32;101328.09;6318353;22;20029;-86
2022/11/07 12:03:44;;;;;;;5.40;2.75;;;;;;;26.74;24.58;101326.53;6294911;22;20010;-89
2022/11/07 12:06:20;;;;;;;7.40;2.97;;;;;;;26.24;25.34;101327.31;6393702;22;20014;-88
2022/11/07 12:09:07;;;;;;;5.75;3.38;;;;;;;25.77;26.27;101324.81;6312819;22;20027;-86
2022/11/07 12:11:48;;;;;;;5.15;3.30;;;;;;;25.18;26.60;101326.91;6366379;22;20034;-89
2022/11/07 12:14:28;;;;;;;4.88;2.95;;;;;;;24.63;27.18;101331.72;6372812;22;20006;-87
2022/11/07 12:17:04;;;;;;;6.28;2.78;;;;;;;24.12;27.65;101335.88;6375869;22;20105;-87
2022/11/07 12:19:41;;;;;;;6.05;2.78;;;;;;;23.74;28.11;101328.84;6346111;22;20055;-87
2022/11/07 12:22:23;;;;;;;10.32;3.03;;;;;;;23.52;28.27;101314.72;6350195;22;19998;-86
2022/11/07 12:24:56;;;;;;;5.88;2.83;;;;;;;23.26;29.29;101309.59;6347712;22;19998;-85
2022/11/07 12:27:52;;;;;;;10.73;6.63;;;;;;;23.34;28.76;101322.97;6349778;22;20063;-83
2022/11/07 12:30:33;;;;;;;9.00;4.25;;;;;;;23.24;29.31;101329.00;6348855;22;20010;-85
2022/11/07 12:33:10;;;;;;;13.05;4.22;;;;;;;22.94;30.11;101324.25;6347450;22;20019;-83
2022/11/07 12:35:39;;;;;;;7.15;2.90;;;;;;;22.94;30.31;101324.25;6381762;22;20048;-84
2022/11/07 12:38:35;;;;;;;8.52;4.00;;;;;;;22.55;31.46;101320.84;6390096;22;20034;-84
2022/11/07 12:41:23;;;;;;;8.13;3.55;;;;;;;22.24;31.78;101301.69;6391961;22;20034;-85
2022/11/07 12:44:18;;;;;;;8.38;3.22;;;;;;;21.98;32.11;101319.97;6385383;22;20402;-86
2022/11/07 12:47:03;;;;;;;6.70;2.90;;;;;;;21.80;32.69;101328.09;6357429;22;20006;-84
2022/11/07 12:50:28;;;;;;;11.25;3.30;;;;;;;21.19;33.23;101291.94;6329739;22;20164;-87
2022/11/07 12:53:25;;;;;;;8.25;3.17;;;;;;;21.27;33.27;101324.50;6271796;22;20022;-86
2022/11/07 12:56:26;;;;;;;6.85;3.17;;;;;;;21.15;33.40;101323.50;6292882;22;20016;-87
2022/11/07 12:58:59;;;;;;;7.38;3.28;;;;;;;20.77;34.28;101309.72;6353332;22;20031;-87
2022/11/07 13:02:07;;;;;;;7.93;2.90;;;;;;;20.68;34.51;101320.03;6332452;22;20014;-86
2022/11/07 13:05:03;;;;;;;6.82;3.05;;;;;;;20.40;35.23;101318.31;6356930;22;20035;-86
2022/11/07 13:07:39;;;;;;;7.05;3.30;;;;;;;20.21;35.95;101321.88;6377652;22;20067;-86
2022/11/07 13:10:38;;;;;;;7.65;3.20;;;;;;;20.11;35.97;101321.44;6355302;22;20132;-87
2022/11/07 13:13:20;;;;;;;8.80;2.80;;;;;;;19.82;36.42;101326.22;6360580;22;19999;-87
2022/11/07 13:15:46;;;;;;;5.65;2.75;;;;;;;19.53;36.57;101306.38;6360591;22;20010;-86
2022/11/07 13:18:24;;;;;;;;;;;;;;;19.63;36.61;101329.69;6340661;22;19999;-86
2022/11/07 13:21:03;;;;;;;10.68;3.10;;;;;;;19.19;37.52;101319.00;6384516;22;19916;-85
2022/11/07 13:23:29;;;;;;;8.57;3.20;;;;;;;19.05;38.23;101328.16;6351236;22;20330;-89
2022/11/07 13:25:59;;;;;;;;;;;;;;;18.94;38.65;101337.75;6328405;22;20010;-86
2022/11/07 13:29:05;;;;;;;6.53;2.80;;;;;;;18.66;38.77;101326.84;6323303;22;19910;-87
2022/11/07 13:31:36;;;;;;;8.15;3.10;;;;;;;18.62;39.06;101333.72;6359891;22;20014;-86
2022/11/07 13:34:17;;;;;;;5.55;3.00;;;;;;;18.28;39.11;101308.06;6359714;22;20078;-87
2022/11/07 13:36:44;;;;;;;7.32;2.75;;;;;;;18.41;39.17;101320.16;6362480;22;20063;-88
2022/11/07 13:39:10;;;;;;;7.60;3.13;;;;;;;18.24;39.46;101336.75;6310339;22;20032;-88
2022/11/07 13:41:36;;;;;;;;;;;;;;;18.26;39.64;101336.53;6366480;22;20018;-86